Flight Track Log - Related Links

Times and Time Zones

All times are in EDT time to prevent confusion due to time zone crossing. See the AAL313 flight status page for this flight to view local times or setup timezone preferences in your user account.

Time Position Orientation Groundspeed Altitude Reporting Facility
EDT Latitude Longitude Course Direction KTS MPH feet Rate Location/Type
Mon 12:22:54 PM 41.9333 -87.9000 166° South 181 208 2,400  Level Chicago TRACON
Mon 12:23:48 PM 41.8833 -87.9000 180° South 229 264 4,500 2,483 Climbing Chicago TRACON
Mon 12:24:50 PM 41.8078 -87.8875 173° South 280 322 7,200 3,097 Climbing Chicago Center
Mon 12:25:00 PM 41.6988 -87.6982 158° South  Level Estimated
Mon 12:25:52 PM 41.7297 -87.8456 158° South 304 350 10,900  Level Chicago Center
Mon 12:26:00 PM 41.6044 -87.6292 153° Southeast  Level Estimated
Mon 12:26:54 PM 41.6550 -87.7833 148° Southeast 314 361 13,900  Level Chicago Center
Mon 12:27:00 PM 41.4994 -87.5980 167° South  Level FlightAware Approximate
Mon 12:27:56 PM 41.5628 -87.7108 150° Southeast 332 382 15,200  Level Chicago Center
Mon 12:28:00 PM 41.4257 -87.5424 166° South  Level Estimated
Mon 12:28:58 PM 41.4753 -87.6453 151° Southeast 355 409 16,700  Level Chicago Center
Mon 12:30:00 PM 41.3719 -87.5869 157° South 393 452 18,700 2,032 Climbing Chicago Center
Mon 12:31:02 PM 41.2647 -87.5233 156° South 415 478 20,900 2,032 Climbing Chicago Center
Mon 12:32:04 PM 41.1519 -87.4542 155° Southeast 435 501 22,900 1,008 Climbing Chicago Center
Mon 12:33:07 PM 41.0164 -87.3753 156° South 450 518 23,000 48 Climbing Chicago Center
Mon 12:34:09 PM 40.9031 -87.3069 155° Southeast 451 519 23,000 -242 Level Chicago Center
Mon 12:35:11 PM 40.7897 -87.2400 156° South 450 518 22,500 -871 Descending Chicago Center
Mon 12:36:13 PM 40.6672 -87.1683 156° South 443 510 21,200 -1,452 Descending Chicago Center
Mon 12:37:15 PM 40.5567 -87.1033 156° South 436 502 19,500 -1,694 Descending Chicago Center
Mon 12:38:17 PM 40.4489 -87.0417 156° South 428 493 17,700 -1,984 Descending Chicago Center
Mon 12:39:19 PM 40.3464 -86.9825 156° South 409 471 15,400 -2,129 Descending Chicago Center
Mon 12:40:21 PM 40.2486 -86.9258 156° South 392 451 13,300 -1,161 Descending Chicago Center
Mon 12:41:23 PM 40.1428 -86.8478 151° Southeast 382 440 13,000 -339 Descending Chicago Center
Mon 12:42:25 PM 40.0739 -86.7469 132° Southeast 377 434 12,600 -1,113 Descending Chicago Center
Mon 12:43:27 PM 40.0069 -86.6472 131° Southeast 368 423 10,700 -1,296 Descending Chicago Center
Mon 12:44:30 PM 39.9442 -86.5550 132° Southeast 350 403 9,900 -1,056 Descending Chicago Center
Mon 12:45:32 PM 39.8869 -86.4728 132° Southeast 318 366 8,500 -1,258 Descending Chicago Center
Mon 12:46:34 PM 39.8381 -86.3922 128° Southeast 298 343 7,300 -1,152 Descending Chicago Center
Mon 12:47:11 PM 39.8500 -86.3167 78° East 236 272 6,600 -1,231 Descending Indianapolis TRACON
Mon 12:47:52 PM 39.8556 -86.2708 81° East 245 282 5,700 -1,294 Descending Indianapolis Center
Mon 12:48:53 PM 39.8683 -86.1894 78° East 244 281 4,400 -1,171 Descending Indianapolis Center
Mon 12:49:55 PM 39.8172 -86.1842 175° South 223 257 3,300 -1,053 Descending Indianapolis Center
Mon 12:51:44 PM 39.7522 -86.2617 223° Southwest 177 204 1,400 -912 Descending Chicago Center
Mon 12:52:46 PM 39.7236 -86.2983 225° Southwest 147 169 700 -677 Descending Chicago Center

Login

Don't have an account? Register now (free) for customized features, flight alerts, and more!